Time;durP1;ratioP1;P1;durP2;ratioP2;P2;SDS_P1;SDS_P2;PMS_P1;PMS_P2;Temp;Humidity;BMP_temperature;BMP_pressure;BME280_temperature;BME280_humidity;BME280_pressure;Samples;Min_cycle;Max_cycle;Signal;HPM_P1;HPM_P2
2023/05/21 00:01:41;;;;;;;5.83;5.33;;;21.40;54.20;22.10;100854.00;;;;5047886;28;20612;-53
2023/05/21 00:04:07;;;;;;;5.50;5.00;;;21.40;54.20;22.10;100851.00;;;;5047996;28;20206;-52
2023/05/21 00:06:37;;;;;;;5.67;5.20;;;21.40;54.30;22.10;100852.00;;;;5048945;28;20253;-53
2023/05/21 00:09:03;;;;;;;5.33;4.93;;;21.40;54.40;22.10;100857.00;;;;5048013;28;20640;-53
2023/05/21 00:11:29;;;;;;;5.80;5.30;;;21.40;54.30;22.00;100849.00;;;;5048300;28;20275;-53
2023/05/21 00:13:55;;;;;;;8.23;5.23;;;21.30;54.30;22.00;100847.00;;;;5047806;28;20308;-54
2023/05/21 00:16:21;;;;;;;5.40;4.90;;;21.40;54.50;22.00;100795.00;;;;5047758;28;20206;-55
2023/05/21 00:18:48;;;;;;;5.60;5.10;;;21.40;54.70;22.00;100847.00;;;;5047042;28;20194;-53
2023/05/21 00:21:21;;;;;;;5.33;4.93;;;21.40;54.70;22.00;100833.00;;;;5040243;28;20235;-54
2023/05/21 00:23:48;;;;;;;5.40;5.00;;;21.30;54.60;22.00;100844.00;;;;5057138;28;20166;-53
2023/05/21 00:26:14;;;;;;;5.73;5.23;;;21.30;54.60;22.00;100836.00;;;;5049787;28;20183;-54
2023/05/21 00:28:40;;;;;;;5.27;4.87;;;21.30;54.70;22.00;100825.00;;;;5049257;28;20182;-53
2023/05/21 00:31:06;;;;;;;5.20;4.80;;;21.30;54.70;22.00;100820.00;;;;5048574;28;20235;-51
2023/05/21 00:33:31;;;;;;;5.30;4.90;;;21.30;54.60;22.00;100820.00;;;;5049272;28;20279;-55
2023/05/21 00:35:58;;;;;;;5.30;4.90;;;21.30;54.70;22.00;100814.00;;;;5059128;28;20289;-53
2023/05/21 00:38:26;;;;;;;5.63;5.13;;;21.30;54.80;22.00;100808.00;;;;5056045;28;20596;-53
2023/05/21 00:40:52;;;;;;;5.33;4.90;;;21.30;54.80;21.90;100815.00;;;;5047787;28;20268;-53
2023/05/21 00:43:18;;;;;;;5.20;4.80;;;21.30;54.80;21.90;100821.00;;;;5047790;28;20597;-53
2023/05/21 00:45:46;;;;;;;5.40;5.00;;;21.20;54.70;21.90;100818.00;;;;5048047;28;20658;-53
2023/05/21 00:48:11;;;;;;;5.30;4.90;;;21.20;54.80;21.90;100815.00;;;;5046805;28;20206;-53
2023/05/21 00:50:40;;;;;;;5.00;4.60;;;21.20;55.30;21.90;100821.00;;;;5048270;28;20206;-53
2023/05/21 00:53:09;;;;;;;5.50;5.00;;;21.30;54.90;21.90;100816.00;;;;5030094;28;20226;-53
2023/05/21 00:55:38;;;;;;;5.40;5.00;;;21.20;54.80;21.90;100806.00;;;;5048033;28;20206;-52
2023/05/21 00:58:04;;;;;;;5.60;5.10;;;21.20;54.80;21.90;100816.00;;;;5047328;28;20182;-53
2023/05/21 01:00:34;;;;;;;5.30;4.90;;;21.20;54.90;21.80;100812.00;;;;5030031;28;20699;-53
2023/05/21 01:03:00;;;;;;;5.20;4.80;;;21.20;54.90;21.80;100808.00;;;;5032668;28;20886;-52
2023/05/21 01:05:27;;;;;;;5.20;4.70;;;21.10;54.80;21.80;100815.00;;;;5051004;28;20205;-54
2023/05/21 01:07:53;;;;;;;5.50;5.10;;;21.20;54.90;21.80;100807.00;;;;5031914;28;20236;-52
2023/05/21 01:10:18;;;;;;;5.37;4.97;;;21.10;54.80;21.80;100805.00;;;;5030080;28;20189;-53
2023/05/21 01:12:45;;;;;;;5.30;4.90;;;21.10;54.90;21.80;100809.00;;;;5029563;28;20206;-53
2023/05/21 01:15:11;;;;;;;5.50;5.00;;;21.10;54.90;21.60;100810.00;;;;5013072;28;20505;-53
2023/05/21 01:17:37;;;;;;;5.33;4.93;;;21.10;54.90;21.80;100804.00;;;;5046895;28;20189;-53
2023/05/21 01:20:10;;;;;;;5.87;4.80;;;21.10;54.90;21.80;100799.00;;;;5015165;28;20173;-53
2023/05/21 01:22:42;;;;;;;5.43;5.00;;;21.00;54.80;21.70;100812.00;;;;5018757;28;20320;-54
2023/05/21 01:25:09;;;;;;;5.30;4.90;;;21.10;55.00;21.70;100804.00;;;;5002391;28;20189;-53
2023/05/21 01:27:35;;;;;;;5.57;5.07;;;21.10;55.00;21.70;100807.00;;;;5018079;28;20188;-54
2023/05/21 01:30:01;;;;;;;5.47;5.00;;;21.10;55.00;21.70;100814.00;;;;4986026;28;20626;-54
2023/05/21 01:32:40;;;;;;;5.40;5.00;;;21.10;55.00;21.70;100803.00;;;;5002210;28;20220;-53
2023/05/21 01:35:10;;;;;;;5.20;4.80;;;21.00;54.90;21.70;100803.00;;;;5003350;28;20650;-54
2023/05/21 01:37:42;;;;;;;4.97;4.57;;;21.00;54.90;21.60;100795.00;;;;5017287;28;20312;-54
2023/05/21 01:40:15;;;;;;;5.03;4.63;;;21.00;54.90;21.60;100798.00;;;;5018656;28;20224;-54
2023/05/21 01:42:43;;;;;;;5.30;4.90;;;21.00;55.00;21.60;100797.00;;;;5017607;28;20186;-54
2023/05/21 01:45:09;;;;;;;5.30;4.90;;;21.00;55.10;21.60;100796.00;;;;5002164;28;20188;-56
2023/05/21 01:47:36;;;;;;;5.10;4.70;;;21.00;55.00;21.60;100792.00;;;;5001024;28;20177;-54
2023/05/21 01:50:03;;;;;;;5.20;4.80;;;21.00;55.00;21.60;100797.00;;;;5000395;28;20170;-52
2023/05/21 01:52:30;;;;;;;5.10;4.70;;;21.00;55.10;21.60;100792.00;;;;5002155;28;20193;-53
2023/05/21 01:54:56;;;;;;;5.13;4.67;;;21.00;55.10;21.50;100796.00;;;;5002960;28;20171;-54
2023/05/21 01:57:22;;;;;;;5.30;4.90;;;20.90;55.00;21.50;100785.00;;;;5033702;28;20194;-52
2023/05/21 01:59:48;;;;;;;4.97;4.57;;;20.90;55.00;21.50;100792.00;;;;5033656;28;20175;-54
2023/05/21 02:02:14;;;;;;;5.27;4.87;;;20.90;55.20;21.50;100806.00;;;;5017246;28;20226;-52
2023/05/21 02:04:40;;;;;;;5.10;4.70;;;20.90;55.10;21.50;100797.00;;;;5033748;28;20261;-52
2023/05/21 02:07:06;;;;;;;4.80;4.40;;;20.90;55.10;21.50;100782.00;;;;5017098;28;20269;-53
2023/05/21 02:09:32;;;;;;;5.07;4.67;;;20.90;55.10;21.40;100781.00;;;;5050291;28;20200;-54
2023/05/21 02:11:58;;;;;;;5.00;4.60;;;20.90;55.20;21.40;100784.00;;;;5016669;28;20198;-53
2023/05/21 02:14:25;;;;;;;4.70;4.40;;;20.90;55.30;21.40;100798.00;;;;5000760;28;20193;-52
2023/05/21 02:16:51;;;;;;;5.07;4.67;;;20.90;55.30;21.40;100794.00;;;;5017193;28;20232;-52
2023/05/21 02:19:17;;;;;;;4.83;4.43;;;20.90;55.30;21.40;100792.00;;;;5016032;28;20209;-52
2023/05/21 02:21:43;;;;;;;4.83;4.43;;;20.80;55.20;21.40;100789.00;;;;5000558;28;20224;-53
2023/05/21 02:24:09;;;;;;;5.10;4.70;;;20.80;55.20;21.40;100791.00;;;;5056682;28;20179;-52
2023/05/21 02:26:34;;;;;;;4.80;4.40;;;20.80;55.10;21.40;100789.00;;;;5017339;28;20272;-53
2023/05/21 02:29:01;;;;;;;4.70;4.40;;;20.80;55.20;21.40;100787.00;;;;5053462;28;20178;-51
2023/05/21 02:31:27;;;;;;;4.90;4.50;;;20.80;55.20;21.30;100790.00;;;;4985531;28;20201;-53
2023/05/21 02:33:52;;;;;;;4.77;4.37;;;20.80;55.30;21.30;100787.00;;;;5019797;28;20175;-53
2023/05/21 02:36:18;;;;;;;4.77;4.37;;;20.80;55.40;21.30;100790.00;;;;5019768;28;20591;-51
2023/05/21 02:38:45;;;;;;;4.63;4.27;;;20.80;55.30;21.30;100786.00;;;;5007288;28;20694;-53
2023/05/21 02:41:11;;;;;;;4.80;4.40;;;20.80;55.30;21.30;100782.00;;;;5064447;28;20554;-51
2023/05/21 02:43:37;;;;;;;4.93;4.50;;;20.80;55.20;21.30;100792.00;;;;5036092;28;20174;-54
2023/05/21 02:46:04;;;;;;;4.80;4.40;;;20.80;55.30;21.30;100778.00;;;;5053021;28;20695;-52
2023/05/21 02:48:30;;;;;;;4.80;4.40;;;20.80;55.30;21.30;100788.00;;;;5051735;28;20211;-52
2023/05/21 02:50:57;;;;;;;4.93;4.53;;;20.70;55.20;21.30;100785.00;;;;5052130;28;20205;-53
2023/05/21 02:53:23;;;;;;;4.50;4.20;;;20.80;55.30;21.30;100786.00;;;;5017733;28;20198;-52
2023/05/21 02:55:49;;;;;;;4.70;4.30;;;20.70;55.30;21.30;100775.00;;;;5001175;28;20214;-53
2023/05/21 02:58:15;;;;;;;4.47;4.17;;;20.70;55.20;21.30;100774.00;;;;4983945;28;20174;-53
2023/05/21 03:00:41;;;;;;;4.53;4.23;;;20.70;55.20;21.30;100781.00;;;;5001626;28;20174;-53
2023/05/21 03:03:06;;;;;;;4.47;4.17;;;20.70;55.30;21.20;100785.00;;;;5016762;28;20256;-53
2023/05/21 03:05:32;;;;;;;4.60;4.30;;;20.70;55.30;21.20;100750.00;;;;5033557;28;20175;-53
2023/05/21 03:07:58;;;;;;;4.97;4.57;;;20.70;55.30;21.20;100773.00;;;;5016733;28;20213;-52
2023/05/21 03:10:24;;;;;;;4.80;4.40;;;20.70;55.30;21.20;100768.00;;;;5000244;28;20182;-55
2023/05/21 03:12:50;;;;;;;4.50;4.20;;;20.70;55.30;21.20;100779.00;;;;5000142;28;20309;-52
2023/05/21 03:15:16;;;;;;;4.50;4.20;;;20.70;55.40;21.20;100771.00;;;;5016990;28;20186;-52
2023/05/21 03:17:43;;;;;;;4.93;4.53;;;20.60;55.30;21.20;100758.00;;;;5015908;28;20312;-52
2023/05/21 03:20:14;;;;;;;4.23;3.93;;;20.70;55.40;21.20;100755.00;;;;5000207;28;20189;-55
2023/05/21 03:22:43;;;;;;;4.60;4.27;;;20.60;55.30;21.20;100755.00;;;;5049974;28;20194;-53
2023/05/21 03:25:11;;;;;;;4.60;4.30;;;20.60;55.40;21.20;100749.00;;;;5007643;28;20185;-53
2023/05/21 03:27:37;;;;;;;4.77;4.37;;;20.60;55.30;21.10;100749.00;;;;5022147;28;20176;-53
2023/05/21 03:30:04;;;;;;;5.00;4.60;;;20.60;55.40;21.10;100756.00;;;;5015833;28;20675;-53
2023/05/21 03:32:32;;;;;;;4.60;4.20;;;20.60;55.30;21.20;100763.00;;;;5031223;28;20213;-53
2023/05/21 03:34:58;;;;;;;4.70;4.30;;;20.60;55.40;21.10;100768.00;;;;5016337;28;20243;-53
2023/05/21 03:37:24;;;;;;;8.13;4.30;;;20.60;55.40;21.10;100766.00;;;;4998887;28;20209;-51
2023/05/21 03:39:50;;;;;;;4.93;4.30;;;20.60;55.90;21.10;100758.00;;;;5030626;28;20200;-51
2023/05/21 03:42:16;;;;;;;6.10;4.50;;;20.60;55.60;21.10;100759.00;;;;5030589;28;20868;-52
2023/05/21 03:44:42;;;;;;;4.60;3.97;;;20.60;55.50;21.10;100759.00;;;;4998605;28;20645;-51
2023/05/21 03:47:08;;;;;;;5.50;4.43;;;20.60;55.40;21.10;100759.00;;;;5031802;28;20195;-52
2023/05/21 03:49:33;;;;;;;4.70;4.30;;;20.60;55.40;21.10;100755.00;;;;5046741;28;20527;-52
2023/05/21 03:52:00;;;;;;;5.07;4.10;;;20.50;55.20;21.10;100753.00;;;;4998815;28;20202;-52
2023/05/21 03:54:26;;;;;;;4.73;4.30;;;20.60;55.30;21.10;100752.00;;;;5048688;28;20181;-51
2023/05/21 03:56:53;;;;;;;4.97;4.40;;;20.50;55.10;21.10;100751.00;;;;5014791;28;20205;-51
2023/05/21 03:59:19;;;;;;;8.43;4.37;;;20.50;55.10;21.10;100755.00;;;;5048533;28;20197;-52
2023/05/21 04:01:45;;;;;;;5.97;4.77;;;20.50;55.10;21.10;100762.00;;;;4998014;28;20853;-51
2023/05/21 04:04:10;;;;;;;4.50;4.10;;;20.50;55.10;21.10;100758.00;;;;5014736;28;20186;-51
2023/05/21 04:06:37;;;;;;;5.77;3.97;;;20.50;55.10;21.10;100758.00;;;;5014539;28;20182;-52
2023/05/21 04:09:03;;;;;;;3.97;3.67;;;20.50;55.10;21.00;100756.00;;;;5013751;28;20189;-52
2023/05/21 04:11:30;;;;;;;4.67;4.27;;;20.50;55.10;21.00;100769.00;;;;5014657;28;20261;-52
2023/05/21 04:13:56;;;;;;;4.43;4.03;;;20.50;55.10;21.00;100761.00;;;;5014895;28;20187;-51
2023/05/21 04:16:23;;;;;;;4.40;4.00;;;20.50;55.10;21.00;100760.00;;;;5031071;28;20205;-51
2023/05/21 04:18:49;;;;;;;4.33;3.93;;;20.40;55.00;21.00;100757.00;;;;5030797;28;20180;-51
2023/05/21 04:21:15;;;;;;;4.50;4.20;;;20.40;55.00;21.00;100760.00;;;;4998399;28;20187;-52
2023/05/21 04:23:41;;;;;;;5.20;4.13;;;20.40;55.10;21.00;100756.00;;;;5047918;28;20184;-53
2023/05/21 04:26:07;;;;;;;3.90;3.60;;;20.40;55.00;21.00;100764.00;;;;5048640;28;20174;-51
2023/05/21 04:28:34;;;;;;;4.87;3.93;;;20.40;55.00;21.00;100752.00;;;;5016789;28;20535;-52
2023/05/21 04:31:00;;;;;;;4.73;4.13;;;20.40;55.00;21.00;100753.00;;;;5027042;28;20202;-52
2023/05/21 04:33:26;;;;;;;4.43;3.97;;;20.40;55.00;20.90;100754.00;;;;5055157;28;20213;-52
2023/05/21 04:35:52;;;;;;;4.30;3.80;;;20.40;55.00;20.90;100754.00;;;;5003042;28;20239;-51
2023/05/21 04:38:19;;;;;;;4.10;3.80;;;20.40;55.10;20.90;100760.00;;;;5050487;28;20177;-50
2023/05/21 04:40:55;;;;;;;4.70;4.20;;;20.40;55.10;20.90;100755.00;;;;5018042;28;20189;-51
2023/05/21 04:43:24;;;;;;;4.97;4.00;;;20.30;55.00;20.90;100751.00;;;;5047906;28;20224;-51
2023/05/21 04:45:54;;;;;;;4.63;4.23;;;20.30;54.90;20.90;100750.00;;;;5058106;28;20178;-53
2023/05/21 04:48:25;;;;;;;4.50;4.10;;;20.40;55.10;20.90;100752.00;;;;4985556;28;20177;-52
2023/05/21 04:50:52;;;;;;;4.70;4.30;;;20.30;55.00;20.90;100750.00;;;;5032896;28;20671;-52
2023/05/21 04:53:18;;;;;;;6.47;4.30;;;20.30;55.00;20.90;100751.00;;;;5015798;28;20714;-53
2023/05/21 04:55:45;;;;;;;7.57;4.67;;;20.30;55.00;20.90;100750.00;;;;5015565;28;20210;-52
2023/05/21 04:58:12;;;;;;;12.63;5.07;;;20.30;55.00;20.80;100736.00;;;;4998870;28;20169;-51
2023/05/21 05:00:40;;;;;;;10.20;5.07;;;20.30;55.10;20.80;100763.00;;;;5015358;28;20169;-52
2023/05/21 05:03:06;;;;;;;6.60;5.03;;;20.30;55.10;20.80;100759.00;;;;5030868;28;20190;-52
2023/05/21 05:05:32;;;;;;;11.37;5.17;;;20.30;55.10;20.80;100751.00;;;;4998516;28;20178;-50
2023/05/21 05:07:59;;;;;;;15.60;6.13;;;20.20;55.20;20.80;100746.00;;;;4997874;28;20213;-52
2023/05/21 05:10:25;;;;;;;15.73;5.80;;;20.20;56.10;20.80;100749.00;;;;5048529;28;20175;-52
2023/05/21 05:12:50;;;;;;;14.20;5.63;;;20.20;55.40;20.80;100751.00;;;;5030364;28;20205;-52
2023/05/21 05:15:16;;;;;;;11.07;5.57;;;20.20;55.40;20.80;100745.00;;;;5048621;28;20188;-52
2023/05/21 05:17:43;;;;;;;13.00;5.30;;;20.20;55.40;20.80;100746.00;;;;5048440;28;20188;-52
2023/05/21 05:20:10;;;;;;;10.43;5.37;;;20.20;55.40;20.80;100756.00;;;;5031021;28;20171;-52
2023/05/21 05:22:36;;;;;;;13.97;5.27;;;20.20;55.40;20.80;100756.00;;;;4998102;28;20200;-51
2023/05/21 05:25:01;;;;;;;8.10;5.07;;;20.20;55.50;20.80;100748.00;;;;5017425;28;20188;-52
2023/05/21 05:27:27;;;;;;;10.93;5.03;;;20.20;55.70;20.80;100748.00;;;;5051912;28;20220;-50
2023/05/21 05:29:53;;;;;;;11.53;5.13;;;20.20;55.60;20.80;100756.00;;;;5016700;28;20185;-51
2023/05/21 05:32:19;;;;;;;12.87;4.90;;;20.20;55.70;20.80;100747.00;;;;5014402;28;20292;-51
2023/05/21 05:34:45;;;;;;;9.30;4.90;;;20.20;55.70;20.70;100745.00;;;;5015423;28;20270;-51
2023/05/21 05:37:11;;;;;;;8.73;4.90;;;20.20;55.80;20.70;100754.00;;;;5014661;28;20194;-51
2023/05/21 05:39:37;;;;;;;9.67;4.70;;;20.20;55.80;20.70;100754.00;;;;5048121;28;20513;-52
2023/05/21 05:42:03;;;;;;;11.77;5.60;;;20.20;55.80;20.70;100758.00;;;;5048271;28;20819;-52
2023/05/21 05:44:29;;;;;;;8.10;5.03;;;20.20;55.90;20.70;100755.00;;;;4998080;28;20271;-51
2023/05/21 05:46:55;;;;;;;8.97;5.13;;;20.20;55.80;20.70;100751.00;;;;5043456;28;20356;-51
2023/05/21 05:49:21;;;;;;;9.47;4.87;;;20.20;55.90;20.70;100753.00;;;;5048016;28;20180;-51
2023/05/21 05:51:46;;;;;;;8.17;4.93;;;20.20;55.90;20.70;100757.00;;;;5014455;28;20205;-51
2023/05/21 05:54:12;;;;;;;5.57;4.97;;;20.20;56.00;20.70;100755.00;;;;5031120;28;20637;-52
2023/05/21 05:56:38;;;;;;;7.87;4.77;;;20.10;55.90;20.70;100752.00;;;;5015323;28;20771;-51
2023/05/21 05:59:05;;;;;;;8.57;5.20;;;20.10;55.80;20.50;100745.00;;;;4998050;28;21013;-52
2023/05/21 06:01:30;;;;;;;9.37;4.90;;;20.10;55.90;20.70;100747.00;;;;5018330;28;20189;-52
2023/05/21 06:03:56;;;;;;;6.67;4.83;;;20.10;55.90;20.70;100747.00;;;;5030504;28;20187;-52
2023/05/21 06:06:22;;;;;;;6.83;4.60;;;20.10;55.90;20.60;100736.00;;;;5051209;28;20799;-52
2023/05/21 06:08:48;;;;;;;6.97;4.50;;;20.10;55.90;20.60;100735.00;;;;5051254;28;20181;-52
2023/05/21 06:11:17;;;;;;;6.73;4.57;;;20.10;55.90;20.60;100726.00;;;;5050748;28;20178;-52
2023/05/21 06:13:44;;;;;;;7.13;4.63;;;20.10;56.00;20.60;100737.00;;;;5034516;28;20652;-52
2023/05/21 06:16:10;;;;;;;6.27;4.27;;;20.10;56.00;20.60;100731.00;;;;5017122;28;20885;-52
2023/05/21 06:18:37;;;;;;;6.27;5.00;;;20.10;55.90;20.60;100732.00;;;;5017174;28;20172;-52
2023/05/21 06:21:03;;;;;;;6.33;4.50;;;20.10;56.00;20.60;100730.00;;;;5001287;28;20239;-52
2023/05/21 06:23:30;;;;;;;4.70;4.10;;;20.10;56.10;20.60;100743.00;;;;5000534;28;20225;-51
2023/05/21 06:25:56;;;;;;;6.50;4.43;;;20.10;56.00;20.60;100742.00;;;;5018214;28;20178;-52
2023/05/21 06:28:23;;;;;;;5.40;4.37;;;20.10;56.00;20.60;100730.00;;;;5033197;28;20348;-52
2023/05/21 06:30:49;;;;;;;6.60;4.40;;;20.10;56.10;20.60;100727.00;;;;5000537;28;20208;-51
2023/05/21 06:33:15;;;;;;;7.47;4.70;;;20.10;56.10;20.60;100730.00;;;;5023532;28;20216;-53
2023/05/21 06:35:40;;;;;;;7.10;4.47;;;20.00;56.20;20.60;100716.00;;;;5027179;28;20618;-52
2023/05/21 06:38:06;;;;;;;4.97;4.30;;;20.00;56.20;20.60;100733.00;;;;5036017;28;20247;-51
2023/05/21 06:40:33;;;;;;;6.27;4.43;;;20.00;56.10;20.60;100723.00;;;;5036138;28;20189;-53
2023/05/21 06:42:59;;;;;;;4.73;4.20;;;20.00;56.10;20.60;100726.00;;;;5018648;28;20202;-53
2023/05/21 06:45:25;;;;;;;6.23;4.63;;;20.00;56.20;20.60;100726.00;;;;4985575;28;20188;-53
2023/05/21 06:47:51;;;;;;;6.30;4.30;;;20.00;56.00;20.60;100719.00;;;;5023694;28;20649;-54
2023/05/21 06:50:17;;;;;;;5.17;4.60;;;20.00;56.00;20.60;100729.00;;;;5024383;28;20234;-53
2023/05/21 06:52:43;;;;;;;4.50;4.10;;;20.00;56.00;20.60;100732.00;;;;5042409;28;20204;-53
2023/05/21 06:55:09;;;;;;;4.77;4.17;;;20.00;56.00;20.60;100729.00;;;;5001417;28;20682;-53
2023/05/21 06:57:36;;;;;;;4.57;4.17;;;20.00;56.00;20.60;100733.00;;;;5001394;28;20717;-53
2023/05/21 07:00:03;;;;;;;4.63;4.10;;;20.00;56.00;20.50;100724.00;;;;5033116;28;20194;-53
2023/05/21 07:02:29;;;;;;;5.00;4.50;;;20.00;56.00;20.60;100736.00;;;;5033290;28;20190;-52
2023/05/21 07:04:55;;;;;;;5.03;4.57;;;20.00;56.60;20.60;100749.00;;;;5050861;28;20235;-52
2023/05/21 07:07:21;;;;;;;4.87;4.40;;;20.00;56.00;20.60;100744.00;;;;5050628;28;20262;-51
2023/05/21 07:09:47;;;;;;;4.80;4.30;;;20.00;56.00;20.60;100739.00;;;;5049703;28;20728;-52
2023/05/21 07:12:13;;;;;;;4.83;4.33;;;20.00;56.00;20.60;100743.00;;;;5050927;28;20223;-51
2023/05/21 07:14:38;;;;;;;5.00;4.50;;;19.90;56.00;20.50;100721.00;;;;5016853;28;20259;-53
2023/05/21 07:17:04;;;;;;;4.63;4.23;;;19.90;56.40;20.60;100748.00;;;;5016175;28;20278;-53
2023/05/21 07:19:31;;;;;;;5.07;4.40;;;20.00;56.60;20.60;100755.00;;;;5031046;28;20676;-52
2023/05/21 07:21:56;;;;;;;6.10;4.40;;;20.00;56.70;20.60;100745.00;;;;5041664;28;20275;-53
2023/05/21 07:24:22;;;;;;;4.70;4.20;;;20.00;56.60;20.60;100749.00;;;;5043367;28;20647;-55
2023/05/21 07:26:48;;;;;;;4.93;4.47;;;20.00;56.70;20.60;100745.00;;;;5047487;28;20529;-54
2023/05/21 07:29:14;;;;;;;5.93;4.70;;;20.00;56.70;20.60;100750.00;;;;5047814;28;20176;-53
2023/05/21 07:31:39;;;;;;;6.40;4.47;;;20.00;56.70;20.60;100747.00;;;;5046068;28;20220;-54
2023/05/21 07:34:05;;;;;;;5.00;4.50;;;20.00;56.70;20.60;100749.00;;;;5048166;28;20686;-54
2023/05/21 07:36:32;;;;;;;6.80;4.47;;;19.90;56.70;20.60;100747.00;;;;5049165;28;20201;-53
2023/05/21 07:38:58;;;;;;;5.60;4.70;;;19.90;56.70;20.70;100745.00;;;;5048792;28;20393;-52
2023/05/21 07:41:23;;;;;;;6.13;4.77;;;20.00;56.80;20.60;100736.00;;;;5040768;28;20207;-54
2023/05/21 07:43:49;;;;;;;5.73;4.80;;;19.90;56.70;20.70;100743.00;;;;5032545;28;20176;-51
2023/05/21 07:46:15;;;;;;;6.10;4.80;;;20.00;56.80;20.70;100737.00;;;;5032829;28;20596;-53
2023/05/21 07:48:42;;;;;;;5.93;4.20;;;20.00;56.90;20.70;100745.00;;;;5047168;28;20647;-53
2023/05/21 07:51:08;;;;;;;6.07;4.47;;;19.90;56.80;20.70;100749.00;;;;5038123;28;20187;-52
2023/05/21 07:53:34;;;;;;;6.20;4.40;;;19.90;56.80;20.70;100767.00;;;;5015704;28;20681;-52
2023/05/21 07:56:00;;;;;;;4.93;4.30;;;19.90;56.80;20.70;100755.00;;;;5050255;28;20201;-53
2023/05/21 07:58:25;;;;;;;4.60;4.20;;;19.90;56.80;20.70;100751.00;;;;5049987;28;20174;-54
2023/05/21 08:00:51;;;;;;;5.27;4.50;;;20.00;56.80;20.70;100748.00;;;;5045606;28;20902;-54
2023/05/21 08:03:17;;;;;;;4.83;4.40;;;19.90;56.70;20.70;100744.00;;;;5049030;28;20218;-53
2023/05/21 08:05:49;;;;;;;5.07;4.57;;;19.90;56.80;20.70;100740.00;;;;5049120;28;20172;-53
2023/05/21 08:08:18;;;;;;;4.83;4.33;;;19.90;56.70;20.70;100747.00;;;;5046523;28;20271;-53
2023/05/21 08:10:44;;;;;;;4.73;4.33;;;19.90;57.40;20.70;100741.00;;;;5038401;28;20173;-53
2023/05/21 08:13:16;;;;;;;5.00;4.60;;;20.00;56.80;20.70;100744.00;;;;5041568;28;20241;-53
2023/05/21 08:15:42;;;;;;;4.93;4.43;;;20.00;56.80;20.80;100752.00;;;;5047431;28;20200;-54
2023/05/21 08:18:08;;;;;;;4.90;4.40;;;20.00;56.80;20.80;100740.00;;;;5041758;28;20211;-53
2023/05/21 08:20:34;;;;;;;4.50;4.10;;;20.00;56.80;20.80;100745.00;;;;5047752;28;20303;-54
2023/05/21 08:23:00;;;;;;;4.90;4.50;;;20.00;56.90;20.80;100754.00;;;;5043354;28;20197;-52
2023/05/21 08:25:26;;;;;;;4.77;4.33;;;20.00;56.80;20.80;100757.00;;;;5031615;28;20655;-53
2023/05/21 08:27:52;;;;;;;4.67;4.27;;;20.00;56.80;20.80;100759.00;;;;5048491;28;20255;-52
2023/05/21 08:30:17;;;;;;;6.37;4.27;;;20.00;56.90;20.80;100760.00;;;;5030240;28;20255;-54
2023/05/21 08:32:43;;;;;;;4.63;4.23;;;20.00;56.80;20.80;100762.00;;;;5048166;28;20292;-55
2023/05/21 08:35:09;;;;;;;4.73;4.33;;;20.00;56.90;20.80;100757.00;;;;5053596;28;20166;-53
2023/05/21 08:37:35;;;;;;;4.83;4.33;;;20.00;57.00;20.90;100763.00;;;;5071036;28;20212;-55
2023/05/21 08:40:01;;;;;;;4.87;4.20;;;20.00;57.00;20.90;100758.00;;;;5051445;28;20465;-53
2023/05/21 08:42:43;;;;;;;5.20;4.30;;;20.00;57.00;20.90;100753.00;;;;5048949;28;20918;-52
2023/05/21 08:45:12;;;;;;;4.30;4.00;;;20.00;57.10;20.90;100749.00;;;;5031624;28;20181;-54
2023/05/21 08:47:37;;;;;;;4.27;3.97;;;20.00;57.00;20.90;100760.00;;;;5031624;28;20578;-53
2023/05/21 08:50:18;;;;;;;4.97;4.57;;;20.00;57.00;20.90;100752.00;;;;5038734;28;20191;-54
2023/05/21 08:52:44;;;;;;;4.70;4.30;;;20.00;57.10;20.90;100739.00;;;;5033909;28;20283;-52
2023/05/21 08:55:09;;;;;;;5.43;4.50;;;20.00;57.10;20.90;100741.00;;;;5049459;28;20176;-53
2023/05/21 08:57:36;;;;;;;4.80;4.30;;;20.10;57.20;20.90;100740.00;;;;5048932;28;20221;-53
2023/05/21 09:00:03;;;;;;;4.63;4.23;;;20.00;57.10;20.90;100740.00;;;;5044923;28;20171;-54
2023/05/21 09:02:32;;;;;;;4.60;4.20;;;20.00;57.10;20.90;100733.00;;;;5048787;28;20198;-53
2023/05/21 09:05:01;;;;;;;6.37;4.47;;;20.10;57.30;21.00;100728.00;;;;5025285;28;20202;-53
2023/05/21 09:07:28;;;;;;;4.97;4.57;;;20.00;57.60;21.00;100722.00;;;;5020085;28;20183;-55
2023/05/21 09:10:01;;;;;;;4.90;4.40;;;20.10;57.80;20.90;100724.00;;;;5037888;28;20176;-52
2023/05/21 09:12:27;;;;;;;7.50;4.57;;;20.10;58.00;20.90;100726.00;;;;5042828;28;20239;-51
2023/05/21 09:14:53;;;;;;;5.87;4.67;;;20.00;57.90;20.90;100723.00;;;;5028368;28;20234;-52
2023/05/21 09:17:19;;;;;;;5.47;4.53;;;20.00;57.90;21.00;100731.00;;;;5047548;28;20199;-51
2023/05/21 09:20:14;;;;;;;4.97;4.47;;;20.10;58.40;21.00;100726.00;;;;5046736;28;20622;-53
2023/05/21 09:22:48;;;;;;;6.13;4.90;;;20.10;58.40;21.00;100718.00;;;;5044823;28;20197;-53
2023/05/21 09:25:23;;;;;;;5.77;4.80;;;20.10;58.70;21.00;100713.00;;;;5048738;28;20185;-53
2023/05/21 09:27:49;;;;;;;7.37;5.27;;;20.10;59.30;21.00;100711.00;;;;5048124;28;20523;-53
2023/05/21 09:30:16;;;;;;;5.50;5.00;;;20.10;59.70;21.10;100710.00;;;;5048177;28;20170;-53
2023/05/21 09:32:43;;;;;;;6.50;5.20;;;20.10;60.20;21.10;100704.00;;;;5048302;28;20666;-53
2023/05/21 09:35:13;;;;;;;9.10;5.20;;;20.20;60.60;21.10;100705.00;;;;5048457;28;20723;-53
2023/05/21 09:37:43;;;;;;;6.03;5.03;;;20.20;60.50;21.10;100699.00;;;;5029943;28;20222;-53
2023/05/21 09:40:11;;;;;;;5.70;4.90;;;20.20;60.60;21.10;100709.00;;;;5048571;28;20720;-53
2023/05/21 09:42:40;;;;;;;7.37;5.13;;;20.20;60.50;21.10;100708.00;;;;5052477;28;20218;-53
2023/05/21 09:45:09;;;;;;;6.17;4.50;;;20.20;60.60;21.10;100712.00;;;;5034281;28;20231;-53
2023/05/21 09:47:43;;;;;;;6.97;5.07;;;20.20;60.50;21.20;100712.00;;;;5052560;28;20328;-52
2023/05/21 09:50:10;;;;;;;8.13;4.93;;;20.30;60.60;21.20;100722.00;;;;5050927;28;20654;-53
2023/05/21 09:52:37;;;;;;;5.40;4.90;;;20.20;60.60;21.20;100718.00;;;;5051639;28;20202;-52
2023/05/21 09:55:05;;;;;;;6.77;5.00;;;20.20;60.60;21.20;100713.00;;;;5049970;28;20180;-53
2023/05/21 09:57:31;;;;;;;5.53;5.00;;;20.20;60.60;21.20;100715.00;;;;5049581;28;20291;-52
2023/05/21 09:59:57;;;;;;;5.50;5.00;;;20.30;60.80;21.20;100717.00;;;;5049143;28;20213;-52
2023/05/21 10:02:25;;;;;;;6.93;5.10;;;20.30;60.80;21.20;100713.00;;;;5028637;28;20197;-54
2023/05/21 10:04:53;;;;;;;6.53;5.30;;;20.30;60.80;21.30;100706.00;;;;5037490;28;20167;-53
2023/05/21 10:07:24;;;;;;;5.00;4.47;;;20.30;60.80;21.30;100700.00;;;;5026022;28;20730;-53
2023/05/21 10:09:52;;;;;;;5.80;5.20;;;20.30;60.90;21.30;100696.00;;;;5048832;28;20648;-52
2023/05/21 10:12:18;;;;;;;7.70;5.30;;;20.30;61.00;21.30;100704.00;;;;5015188;28;20334;-52
2023/05/21 10:14:46;;;;;;;5.73;5.17;;;20.30;61.00;21.30;100697.00;;;;5015243;28;20263;-52
2023/05/21 10:17:12;;;;;;;5.60;5.10;;;20.30;61.10;21.30;100686.00;;;;5032497;28;20198;-52
2023/05/21 10:19:38;;;;;;;5.33;4.90;;;20.40;61.10;21.40;100687.00;;;;5015761;28;20170;-52
2023/05/21 10:22:04;;;;;;;5.67;5.13;;;20.40;61.20;21.40;100691.00;;;;5017055;28;20205;-52
2023/05/21 10:24:30;;;;;;;5.77;5.17;;;20.40;61.20;21.40;100690.00;;;;5053426;28;20216;-52
2023/05/21 10:26:56;;;;;;;5.70;5.20;;;20.40;61.20;21.40;100694.00;;;;5018815;28;20185;-53
2023/05/21 10:29:22;;;;;;;5.37;4.93;;;20.40;61.40;21.40;100679.00;;;;5031765;28;20182;-54
2023/05/21 10:31:48;;;;;;;5.70;5.17;;;20.40;61.30;21.40;100678.00;;;;5027674;28;20338;-53
2023/05/21 10:34:14;;;;;;;5.30;4.80;;;20.40;61.70;21.50;100679.00;;;;5014617;28;20196;-54
2023/05/21 10:36:40;;;;;;;5.30;4.80;;;20.50;61.80;21.50;100674.00;;;;5029739;28;20206;-60
2023/05/21 10:39:06;;;;;;;5.63;5.23;;;20.40;61.70;21.50;100674.00;;;;5060530;28;20183;-52
2023/05/21 10:42:14;;;;;;;5.43;4.93;;;20.40;61.70;21.50;100604.00;;;;5033759;28;20289;-53
2023/05/21 10:45:04;;;;;;;5.63;5.10;;;20.50;61.90;21.50;100666.00;;;;5035776;28;20185;-53
2023/05/21 10:48:08;;;;;;;5.80;5.30;;;20.50;61.80;21.60;100652.00;;;;5037253;28;20205;-54